NCAR-RAP Real-Time Weather Data

Output produced by METARs form (17 December 2018  08:35 UTC)
found at http://weather.rap.ucar.edu/surface/
 
RJOH 170800Z 28018KT 9999 -SHRA FEW010 SCT025 BKN035 08/01 Q1013
RJOH 170700Z 25013KT 9999 -SHRA FEW015 BKN035 BKN050 08/03 Q1012
RJOH 170600Z 25012KT 9999 -SHRA FEW015 BKN035 BKN060 08/04 Q1012
RJOH 170500Z 26019KT 9999 -SHRA FEW015 BKN035 BKN050 08/02 Q1011
RJOH 170400Z 22012KT 9999 FEW015 SCT035 BKN060 10/04 Q1011
RJOH 170300Z 24014KT 9999 -SHRA FEW015 BKN035 BKN050 09/01 Q1012
RJOH 170200Z 21010KT 9999 -SHRA FEW030 BKN035 BKN050 08/05 Q1012
RJOH 170100Z 26009KT 9999 -SHRA FEW030 BKN035 BKN050 09/04 Q1013
RJOH 170000Z 21006KT 9999 FEW030 BKN050 BKN080 09/05 Q1012
RJOH 162300Z 23007KT 9999 FEW015 SCT030 BKN050 07/05 Q1012
RJOH 162200Z 20005KT 9999 FEW002 BKN050 06/04 Q1012
RJOH 162100Z 19005KT 9999 FEW002 BKN050 07/05 Q1012
RJOH 162000Z 21004KT 7000 -SHRA PRFG FEW001 BKN035 BKN050 07/05 Q1012
RJOH 161900Z 23007KT 9999 PRFG FEW002 BKN050 06/05 Q1012
RJOH 161800Z 21004KT 9999 FEW035 SCT050 05/03 Q1012
RJOH 161700Z 19004KT 9999 FEW035 SCT050 06/04 Q1013
RJOH 161600Z 00000KT 9999 FEW030 SCT035 BKN050 07/05 Q1014
RJOH 161500Z 25003KT 9999 FEW015 BKN030 BKN050 08/06 Q1014
RJOH 161400Z 18005KT 9999 -SHRA FEW015 BKN035 BKN050 08/06 Q1015
RJOH 161300Z 18003KT 150V210 9999 -SHRA FEW015 BKN035 BKN050 08/06 Q1016
RJOH 161200Z 17005KT 9999 -SHRA FEW025 BKN035 BKN050 08/06 Q1016
RJOH 161100Z 21005KT 9999 -SHRA FEW020 SCT025 BKN035 08/06 Q1016
RJOH 161000Z VRB02KT 9999 -SHRA FEW030 SCT035 BKN050 08/06 Q1016
RJOH 160900Z VRB02KT 9999 -RA FEW035 BKN050 OVC080 08/05 Q1016
RJOH 160800Z 17004KT 9999 -RA FEW020 SCT035 BKN050 08/05 Q1016
RJOH 160700Z 17006KT 9999 -RA FEW020 SCT035 BKN050 09/05 Q1017
RJOH 160600Z 21012KT 9999 -RA FEW030 BKN050 OVC080 10/05 Q1017
RJOH 160500Z 20013KT 9999 -RA FEW030 SCT050 BKN080 11/03 Q1017
RJOH 160400Z 20013KT 9999 FEW030 BKN080 OVC120 12/01 Q1018
RJOH 160300Z 19011KT 9999 FEW050 SCT080 OVC120 12/01 Q1019
RJOH 160200Z 18009KT 9999 FEW050 SCT080 OVC130 10/00 Q1021
RJOH 160100Z 19013KT 9999 FEW050 BKN130 BKN250 09/01 Q1022
RJOH 160000Z 17007KT 9999 FEW050 SCT130 BKN240 07/00 Q1023
RJOH 151300Z VRB01KT 9999 BKN/// 04/00 Q1028
RJOH 151200Z 20003KT 9999 BKN/// 03/00 Q1028
RJOH 151100Z 17005KT 9999 BKN/// 03/01 Q1028
RJOH 151000Z 17005KT 9999 FEW050 SCT/// 04/01 Q1029
RJOH 150900Z 14003KT 9999 FEW030 06/M02 Q1028
RJOH 150800Z 09004KT 9999 FEW050 08/M03 Q1028
RJOH 150700Z 07007KT 9999 FEW030 09/M03 Q1029
RJOH 150600Z 05003KT 330V110 9999 FEW025 SCT030 BKN050 10/M02 Q1029
RJOH 150500Z 07006KT 030V160 9999 FEW025 BKN030 BKN050 10/M02 Q1029
RJOH 150400Z 04004KT 360V110 9999 FEW020 SCT050 09/M00 Q1029
RJOH 150300Z VRB02KT 9999 FEW015 SCT030 BKN050 08/01 Q1030
RJOH 150200Z 24005KT 9999 -SHRA FEW015 BKN030 BKN050 07/02 Q1031
RJOH 150100Z 20003KT 170V230 9999 -SHRA FEW010 BKN030 BKN050 07/02 Q1031
RJOH 150000Z 19004KT 9999 FEW010 SCT030 BKN050 05/03 Q1031
RJOH 142300Z 23005KT 9999 -SHRA FEW010 BKN030 BKN050 05/02 Q1031
RJOH 142200Z 18004KT 9999 -SHRA FEW015 BKN030 BKN050 04/02 Q1030
RJOH 142100Z 16004KT 9999 -SHRA FEW015 BKN035 BKN050 04/02 Q1030